createdAt,value
2022-11-23T00:00:31.004Z,99372.66
2022-11-23T00:03:16.528Z,99383.75
2022-11-23T00:06:03.719Z,99408.88
2022-11-23T00:08:49.483Z,99402.59
2022-11-23T00:11:36.066Z,99395.34
2022-11-23T00:14:19.871Z,99405.22
2022-11-23T00:17:03.775Z,99403.81
2022-11-23T00:19:47.597Z,99412.72
2022-11-23T00:22:31.331Z,99411.75
2022-11-23T00:25:16.758Z,99421.66
2022-11-23T00:28:00.636Z,99423.34
2022-11-23T00:30:49.380Z,99402.09
2022-11-23T00:33:33.446Z,99377.03
2022-11-23T00:36:18.182Z,99409.09
2022-11-23T00:39:02.073Z,99392.69
2022-11-23T00:41:47.335Z,99396.56
2022-11-23T00:44:31.223Z,99374.34
2022-11-23T00:47:15.042Z,99390.16
2022-11-23T00:49:58.875Z,99379.66
2022-11-23T00:52:42.766Z,99382.06
2022-11-23T00:55:26.867Z,99353.09
2022-11-23T00:58:12.000Z,99377.72
2022-11-23T01:01:07.370Z,99352.63
2022-11-23T01:03:53.924Z,99370.25
2022-11-23T01:06:39.716Z,99369.38
2022-11-23T01:09:26.731Z,99356.75
2022-11-23T01:12:10.526Z,99349.41
2022-11-23T01:14:55.809Z,99331.75
2022-11-23T01:17:39.582Z,99341.16
2022-11-23T01:20:25.468Z,99338.09
2022-11-23T01:23:09.194Z,99325.88
2022-11-23T01:25:56.808Z,99325.75
2022-11-23T01:28:42.016Z,99319.34
2022-11-23T01:31:28.024Z,99289.03
2022-11-23T01:34:14.531Z,99330.09
2022-11-23T01:36:58.422Z,99341.69
2022-11-23T01:39:45.008Z,99340.19
2022-11-23T01:42:44.288Z,99326.22
2022-11-23T01:45:37.249Z,99325.91
2022-11-23T01:48:26.566Z,99327.44
2022-11-23T01:51:14.241Z,99326.88
2022-11-23T01:54:01.852Z,99314.31
2022-11-23T01:56:50.779Z,99305.34
2022-11-23T01:59:36.187Z,99307.91
2022-11-23T02:02:22.102Z,99276.63
2022-11-23T02:05:12.912Z,99268.75
2022-11-23T02:08:03.119Z,99300.75
2022-11-23T02:10:48.096Z,99289.47
2022-11-23T02:13:32.566Z,99279.03
2022-11-23T02:16:17.556Z,99274.56
2022-11-23T02:19:02.384Z,99273.19
2022-11-23T02:21:47.918Z,99259.25
2022-11-23T02:24:35.227Z,99257.63
2022-11-23T02:27:21.024Z,99256.31
2022-11-23T02:30:07.814Z,99252.94
2022-11-23T02:32:51.903Z,99219.25
2022-11-23T02:35:36.006Z,99248.41
2022-11-23T02:38:20.859Z,99236.84
2022-11-23T02:41:04.663Z,99242.06
2022-11-23T02:43:53.071Z,99236.16
2022-11-23T02:46:36.832Z,99241.97
2022-11-23T02:49:20.488Z,99233.31
2022-11-23T02:52:06.824Z,99228.66
2022-11-23T02:54:50.465Z,99234.41
2022-11-23T02:57:35.530Z,99225.03
2022-11-23T03:00:20.898Z,99214.44
2022-11-23T03:03:05.945Z,99210.53
2022-11-23T03:05:50.182Z,99219.59
2022-11-23T03:08:34.381Z,99199.09
2022-11-23T03:11:18.256Z,99210.84
2022-11-23T03:14:02.330Z,99214.28
2022-11-23T03:16:49.860Z,99213.94
2022-11-23T03:19:35.715Z,99203.66
2022-11-23T03:22:19.815Z,99090.53
2022-11-23T03:25:04.316Z,99209.88
2022-11-23T03:27:49.057Z,99193.50
2022-11-23T03:30:33.044Z,99189.44
2022-11-23T03:33:18.997Z,99178.63
2022-11-23T03:36:04.815Z,99175.16
2022-11-23T03:38:55.063Z,99171.28
2022-11-23T03:41:52.714Z,99174.25
2022-11-23T03:44:39.122Z,99161.28
2022-11-23T03:47:23.340Z,99145.03
2022-11-23T03:50:10.132Z,99123.06
2022-11-23T03:52:54.950Z,99153.91
2022-11-23T03:55:39.020Z,99133.78
2022-11-23T03:58:22.850Z,99147.00
2022-11-23T04:01:07.794Z,99138.38
2022-11-23T04:03:51.761Z,99135.78
2022-11-23T04:06:48.065Z,99137.50
2022-11-23T04:09:37.582Z,99142.75
2022-11-23T04:12:21.345Z,99141.34
2022-11-23T04:15:07.272Z,99146.84
2022-11-23T04:17:52.206Z,99145.81
2022-11-23T04:20:36.116Z,99142.19
2022-11-23T04:23:21.746Z,99144.50
2022-11-23T04:26:07.488Z,99142.94
2022-11-23T04:28:57.228Z,99105.63
2022-11-23T04:31:41.563Z,99116.66
2022-11-23T04:34:31.257Z,99122.13
2022-11-23T04:37:17.540Z,99111.63
2022-11-23T04:40:03.529Z,99109.03
2022-11-23T04:43:16.936Z,99110.03
2022-11-23T04:46:00.904Z,99139.56
2022-11-23T04:48:47.724Z,99109.50
2022-11-23T04:51:33.842Z,99101.78
2022-11-23T04:54:17.869Z,99126.91
2022-11-23T04:57:08.894Z,99109.56
2022-11-23T04:59:54.633Z,99137.16
2022-11-23T05:02:40.983Z,99146.03
2022-11-23T05:05:38.099Z,99107.41
2022-11-23T05:08:22.473Z,99122.63
2022-11-23T05:11:12.032Z,99112.72
2022-11-23T05:13:57.435Z,99137.59
2022-11-23T05:16:41.659Z,99091.06
2022-11-23T05:19:25.876Z,99112.56
2022-11-23T05:22:09.601Z,99088.47
2022-11-23T05:24:56.734Z,99119.66
2022-11-23T05:27:42.494Z,99133.66
2022-11-23T05:30:27.983Z,99123.59
2022-11-23T05:33:12.425Z,99126.84
2022-11-23T05:35:57.123Z,99125.41
2022-11-23T05:38:51.651Z,99125.16
2022-11-23T05:41:42.581Z,99124.47
2022-11-23T05:44:40.087Z,99116.22
2022-11-23T05:47:30.660Z,99119.19
2022-11-23T05:50:14.501Z,99122.69
2022-11-23T05:53:01.499Z,99131.50
2022-11-23T05:55:45.969Z,99105.50
2022-11-23T05:58:30.731Z,99089.00
2022-11-23T06:01:14.831Z,99124.31
2022-11-23T06:04:00.496Z,99114.78
2022-11-23T06:06:47.482Z,99081.00
2022-11-23T06:09:32.591Z,99106.81
2022-11-23T06:12:22.927Z,99105.28
2022-11-23T06:15:08.401Z,99083.06
2022-11-23T06:17:52.555Z,99086.84
2022-11-23T06:20:40.548Z,99074.66
2022-11-23T06:23:25.185Z,99108.06
2022-11-23T06:26:09.465Z,99113.25
2022-11-23T06:28:53.530Z,99073.56
2022-11-23T06:31:37.849Z,99071.50
2022-11-23T06:34:21.966Z,99065.19
2022-11-23T06:37:07.499Z,99092.72
2022-11-23T06:39:52.050Z,99068.72
2022-11-23T06:42:39.456Z,99082.69
2022-11-23T06:45:30.028Z,99099.75
2022-11-23T06:48:18.202Z,99059.00
2022-11-23T06:51:04.400Z,99043.41
2022-11-23T06:53:50.212Z,99089.13
2022-11-23T06:56:34.941Z,99078.78
2022-11-23T06:59:19.834Z,99083.16
2022-11-23T07:02:03.886Z,99082.56
2022-11-23T07:04:52.654Z,99079.91
2022-11-23T07:07:37.728Z,99072.97
2022-11-23T07:10:29.225Z,99072.00
2022-11-23T07:13:17.067Z,99062.03
2022-11-23T07:16:01.206Z,99057.09
2022-11-23T07:18:45.241Z,99069.59
2022-11-23T07:21:29.305Z,99071.25
2022-11-23T07:24:13.726Z,99074.50
2022-11-23T07:26:59.489Z,99045.34
2022-11-23T07:29:43.292Z,99068.75
2022-11-23T07:32:27.893Z,99071.41
2022-11-23T07:35:12.805Z,99079.69
2022-11-23T07:38:00.272Z,99082.75
2022-11-23T07:40:44.185Z,99083.03
2022-11-23T07:43:41.934Z,99076.06
2022-11-23T07:46:25.881Z,99065.66
2022-11-23T07:49:09.660Z,99082.38
2022-11-23T07:51:54.487Z,99082.06
2022-11-23T07:54:38.323Z,99083.03
2022-11-23T07:57:22.187Z,99083.00
2022-11-23T08:00:09.034Z,99076.00
2022-11-23T08:03:26.171Z,99077.19
2022-11-23T08:05:59.726Z,99069.63
2022-11-23T08:08:43.806Z,99088.13
2022-11-23T08:11:27.578Z,99080.28
2022-11-23T08:14:11.265Z,99073.84
2022-11-23T08:16:56.633Z,99072.56
2022-11-23T08:19:40.354Z,99067.81
2022-11-23T08:22:24.165Z,99064.59
2022-11-23T08:25:08.775Z,99064.31
2022-11-23T08:27:56.424Z,99051.97
2022-11-23T08:30:40.596Z,99067.13
2022-11-23T08:33:25.762Z,99057.59
2022-11-23T08:36:10.434Z,99054.34
2022-11-23T08:38:54.389Z,99045.41
2022-11-23T08:41:38.321Z,99052.84
2022-11-23T08:44:22.122Z,99049.19
2022-11-23T08:47:05.947Z,99050.03
2022-11-23T08:49:51.202Z,99043.88
2022-11-23T08:52:35.001Z,99052.44
2022-11-23T08:55:18.773Z,99040.78
2022-11-23T08:58:02.584Z,99019.22
2022-11-23T09:00:46.567Z,99001.00
2022-11-23T09:03:31.220Z,99019.50
2022-11-23T09:06:16.784Z,99030.56
2022-11-23T09:09:00.632Z,99034.19
2022-11-23T09:11:44.282Z,99030.97
2022-11-23T09:14:28.354Z,99032.38
2022-11-23T09:17:12.354Z,99031.53
2022-11-23T09:19:56.113Z,99027.75
2022-11-23T09:22:41.206Z,99027.19
2022-11-23T09:25:25.570Z,99020.91
2022-11-23T09:28:09.332Z,99023.41
2022-11-23T09:30:53.288Z,99011.25
2022-11-23T09:33:37.134Z,99008.28
2022-11-23T09:36:22.950Z,99009.97
2022-11-23T09:39:08.592Z,98996.94
2022-11-23T09:42:14.604Z,99003.25
2022-11-23T09:45:13.295Z,98994.28
2022-11-23T09:48:19.381Z,98998.19
2022-11-23T09:51:06.735Z,99004.38
2022-11-23T09:53:55.292Z,98992.19
2022-11-23T09:56:42.593Z,98989.53
2022-11-23T09:59:42.155Z,98992.19
2022-11-23T10:02:29.087Z,98990.94
2022-11-23T10:05:18.355Z,98985.88
2022-11-23T10:08:07.156Z,98974.25
2022-11-23T10:10:58.771Z,98964.72
2022-11-23T10:13:46.769Z,98973.13
2022-11-23T10:16:39.568Z,98980.56
2022-11-23T10:19:34.021Z,98980.00
2022-11-23T10:22:23.591Z,98976.91
2022-11-23T10:25:17.195Z,98983.22
2022-11-23T10:28:08.585Z,98976.22
2022-11-23T10:30:58.054Z,98933.91
2022-11-23T10:33:51.755Z,98963.16
2022-11-23T10:36:36.736Z,98965.53
2022-11-23T10:39:24.186Z,98965.41
2022-11-23T10:42:20.939Z,98957.81
2022-11-23T10:45:05.912Z,98941.56
2022-11-23T10:47:56.077Z,98951.66
2022-11-23T10:50:41.515Z,98944.97
2022-11-23T10:53:28.357Z,98924.22
2022-11-23T10:56:14.542Z,98947.44
2022-11-23T10:58:58.683Z,98919.44
2022-11-23T11:01:42.496Z,98938.72
2022-11-23T11:04:30.858Z,98941.69
2022-11-23T11:07:25.170Z,98924.88
2022-11-23T11:10:38.869Z,98935.41
2022-11-23T11:13:24.723Z,98936.16
2022-11-23T11:16:21.131Z,98928.78
2022-11-23T11:19:26.966Z,98929.41
2022-11-23T11:22:30.145Z,98920.06
2022-11-23T11:25:29.327Z,98921.75
2022-11-23T11:28:23.938Z,98931.03
2022-11-23T11:31:45.331Z,98916.81
2022-11-23T11:34:36.493Z,98919.44
2022-11-23T11:37:33.702Z,98913.19
2022-11-23T11:40:29.901Z,98892.84
2022-11-23T11:43:19.345Z,98906.50
2022-11-23T11:46:28.773Z,98925.31
2022-11-23T11:49:17.463Z,98916.09
2022-11-23T11:52:07.352Z,98930.72
2022-11-23T11:54:57.111Z,98926.88
2022-11-23T11:57:46.829Z,98927.88
2022-11-23T12:00:34.696Z,98919.00
2022-11-23T12:03:28.184Z,98904.63
2022-11-23T12:06:25.130Z,98925.31
2022-11-23T12:09:16.730Z,98934.34
2022-11-23T12:12:02.317Z,98924.34
2022-11-23T12:14:47.078Z,98942.75
2022-11-23T12:18:16.081Z,98937.00
2022-11-23T12:21:04.955Z,98945.44
2022-11-23T12:23:57.740Z,98931.91
2022-11-23T12:26:51.953Z,98929.75
2022-11-23T12:29:56.395Z,98924.91
2022-11-23T12:32:48.622Z,98937.34
2022-11-23T12:35:55.318Z,98933.84
2022-11-23T12:38:47.367Z,98942.41
2022-11-23T12:41:40.903Z,98946.47
2022-11-23T12:45:05.010Z,98941.25
2022-11-23T12:48:00.349Z,98953.34
2022-11-23T12:50:50.870Z,98958.44
2022-11-23T12:53:49.198Z,98973.69
2022-11-23T12:56:54.736Z,98965.16
2022-11-23T12:59:46.425Z,98960.41
2022-11-23T13:03:03.572Z,98949.31
2022-11-23T13:06:19.946Z,98958.28
2022-11-23T13:09:26.055Z,98948.91
2022-11-23T13:12:25.699Z,98928.31
2022-11-23T13:15:28.519Z,98924.38
2022-11-23T13:18:22.470Z,98945.34
2022-11-23T13:21:19.432Z,98924.22
2022-11-23T13:24:03.889Z,98954.22
2022-11-23T13:26:48.505Z,98957.56
2022-11-23T13:29:58.743Z,98951.66
2022-11-23T13:32:56.004Z,98922.03
2022-11-23T13:35:57.539Z,98933.22
2022-11-23T13:38:43.862Z,98964.56
2022-11-23T13:42:00.705Z,98958.69
2022-11-23T13:44:44.675Z,98966.25
2022-11-23T13:47:28.725Z,98962.34
2022-11-23T13:50:20.559Z,98934.31
2022-11-23T13:53:20.361Z,98968.66
2022-11-23T13:56:24.180Z,98974.13
2022-11-23T13:59:33.617Z,98978.03
2022-11-23T14:02:27.876Z,98985.72
2022-11-23T14:05:57.264Z,98984.88
2022-11-23T14:08:43.564Z,98951.84
2022-11-23T14:11:28.454Z,98994.44
2022-11-23T14:14:20.197Z,98999.88
2022-11-23T14:17:25.031Z,98990.50
2022-11-23T14:20:26.355Z,99001.28
2022-11-23T14:23:30.676Z,98988.38
2022-11-23T14:26:26.250Z,98975.94
2022-11-23T14:29:28.543Z,98980.41
2022-11-23T14:32:33.748Z,98981.13
2022-11-23T14:35:28.027Z,98968.94
2022-11-23T14:38:42.797Z,98989.25
2022-11-23T14:41:30.072Z,98980.00
2022-11-23T14:44:17.177Z,98986.44
2022-11-23T14:47:01.927Z,98985.59
2022-11-23T14:49:53.609Z,98992.31
2022-11-23T14:52:38.265Z,98956.91
2022-11-23T14:55:25.101Z,98999.34
2022-11-23T14:58:17.258Z,99007.16
2022-11-23T15:01:02.209Z,98968.22
2022-11-23T15:03:56.402Z,99007.97
2022-11-23T15:06:45.920Z,99001.00
2022-11-23T15:09:43.932Z,99003.31
2022-11-23T15:12:29.138Z,99000.38
2022-11-23T15:15:21.052Z,99002.88
2022-11-23T15:18:05.037Z,98967.88
2022-11-23T15:20:48.878Z,99010.22
2022-11-23T15:23:36.877Z,99009.50
2022-11-23T15:26:42.363Z,98971.28
2022-11-23T15:29:35.343Z,98990.91
2022-11-23T15:32:34.303Z,98998.72
2022-11-23T15:35:18.949Z,98994.84
2022-11-23T15:38:03.537Z,98995.69
2022-11-23T15:40:49.269Z,98997.06
2022-11-23T15:43:33.033Z,98999.88
2022-11-23T15:46:17.016Z,98997.91
2022-11-23T15:49:05.589Z,98991.91
2022-11-23T15:51:49.583Z,98990.34
2022-11-23T15:54:37.838Z,98977.47
2022-11-23T15:57:26.413Z,98986.53
2022-11-23T16:00:23.713Z,98983.63
2022-11-23T16:03:30.283Z,98974.78
2022-11-23T16:06:29.498Z,98991.19
2022-11-23T16:09:50.607Z,98998.47
2022-11-23T16:12:47.709Z,99010.22
2022-11-23T16:15:42.481Z,99018.94
2022-11-23T16:18:28.060Z,99029.53
2022-11-23T16:21:16.766Z,99029.16
2022-11-23T16:24:02.007Z,99033.75
2022-11-23T16:26:45.874Z,99052.34
2022-11-23T16:29:35.264Z,99026.59
2022-11-23T16:32:25.341Z,99047.03
2022-11-23T16:35:18.563Z,99040.41
2022-11-23T16:38:02.229Z,99044.91
2022-11-23T16:40:48.228Z,99055.00
2022-11-23T16:43:32.423Z,99055.00
2022-11-23T16:46:16.182Z,99033.50
2022-11-23T16:49:00.734Z,99054.44
2022-11-23T16:51:44.966Z,99057.53
2022-11-23T16:54:28.749Z,99053.50
2022-11-23T16:57:21.451Z,99046.50
2022-11-23T17:00:07.168Z,99041.28
2022-11-23T17:02:51.141Z,99053.38
2022-11-23T17:05:35.015Z,99017.34
2022-11-23T17:08:23.583Z,99046.06
2022-11-23T17:11:13.799Z,99049.44
2022-11-23T17:13:59.833Z,99051.41
2022-11-23T17:16:44.432Z,99050.84
2022-11-23T17:19:28.192Z,99058.97
2022-11-23T17:22:12.023Z,99056.19
2022-11-23T17:24:55.951Z,99003.44
2022-11-23T17:27:42.443Z,99037.06
2022-11-23T17:30:27.911Z,99062.16
2022-11-23T17:33:12.853Z,99053.88
2022-11-23T17:35:59.925Z,99060.75
2022-11-23T17:38:47.177Z,99065.63
2022-11-23T17:41:30.924Z,99080.06
2022-11-23T17:44:15.164Z,99084.34
2022-11-23T17:47:01.783Z,99079.38
2022-11-23T17:49:45.714Z,99080.22
2022-11-23T17:52:29.445Z,99083.84
2022-11-23T17:55:14.263Z,99082.34
2022-11-23T17:57:58.109Z,99084.72
2022-11-23T18:00:41.905Z,99085.53
2022-11-23T18:03:27.161Z,99084.84
2022-11-23T18:06:15.307Z,99095.66
2022-11-23T18:08:59.137Z,99091.16
2022-11-23T18:11:42.930Z,99090.56
2022-11-23T18:14:28.981Z,99092.56
2022-11-23T18:17:12.858Z,99065.06
2022-11-23T18:19:58.316Z,99037.06
2022-11-23T18:22:42.150Z,99099.00
2022-11-23T18:25:26.138Z,99088.09
2022-11-23T18:28:09.888Z,99091.06
2022-11-23T18:30:53.644Z,99047.16
2022-11-23T18:33:37.772Z,99096.09
2022-11-23T18:36:23.681Z,99088.09
2022-11-23T18:39:07.495Z,99107.84
2022-11-23T18:41:51.260Z,99105.19
2022-11-23T18:44:35.323Z,99113.41
2022-11-23T18:47:19.313Z,99104.31
2022-11-23T18:50:06.449Z,99117.81
2022-11-23T18:52:52.303Z,99119.47
2022-11-23T18:55:36.431Z,99116.28
2022-11-23T18:58:20.510Z,99116.84
2022-11-23T19:01:12.347Z,99116.81
2022-11-23T19:03:57.223Z,99100.41
2022-11-23T19:06:41.156Z,99119.75
2022-11-23T19:09:26.694Z,99121.16
2022-11-23T19:12:11.023Z,99096.75
2022-11-23T19:14:55.090Z,99120.28
2022-11-23T19:17:39.455Z,99121.97
2022-11-23T19:20:24.060Z,99124.19
2022-11-23T19:23:07.845Z,99121.94
2022-11-23T19:25:53.111Z,99127.56
2022-11-23T19:28:37.639Z,99129.56
2022-11-23T19:31:23.813Z,99119.03
2022-11-23T19:34:10.616Z,99119.00
2022-11-23T19:36:54.724Z,99118.56
2022-11-23T19:39:38.625Z,99128.00
2022-11-23T19:42:24.098Z,99123.13
2022-11-23T19:45:09.495Z,99112.19
2022-11-23T19:47:53.581Z,99070.97
2022-11-23T19:50:37.749Z,99114.44
2022-11-23T19:53:21.958Z,99111.31
2022-11-23T19:56:08.140Z,99112.88
2022-11-23T19:58:54.787Z,99112.13
2022-11-23T20:01:39.199Z,99103.03
2022-11-23T20:04:23.087Z,99112.03
2022-11-23T20:07:07.136Z,99111.03
2022-11-23T20:09:51.419Z,99105.63
2022-11-23T20:12:35.383Z,99099.84
2022-11-23T20:15:20.728Z,99102.38
2022-11-23T20:18:04.714Z,99089.06
2022-11-23T20:20:49.154Z,99108.06
2022-11-23T20:23:33.098Z,99105.13
2022-11-23T20:26:19.534Z,99125.59
2022-11-23T20:29:04.608Z,99127.28
2022-11-23T20:31:51.836Z,99128.44
2022-11-23T20:34:36.088Z,99130.97
2022-11-23T20:37:20.078Z,99132.63
2022-11-23T20:40:04.249Z,99136.16
2022-11-23T20:42:48.222Z,99134.47
2022-11-23T20:45:32.148Z,99140.22
2022-11-23T20:48:17.504Z,99146.13
2022-11-23T20:51:03.955Z,99126.19
2022-11-23T20:53:52.572Z,99141.63
2022-11-23T20:56:36.693Z,99137.13
2022-11-23T20:59:20.967Z,99102.47
2022-11-23T21:02:04.829Z,99121.53
2022-11-23T21:04:50.405Z,99113.00
2022-11-23T21:07:34.146Z,99149.72
2022-11-23T21:10:35.528Z,99137.25
2022-11-23T21:13:48.990Z,99140.06
2022-11-23T21:16:33.748Z,99138.81
2022-11-23T21:19:17.568Z,99129.13
2022-11-23T21:22:06.758Z,99131.19
2022-11-23T21:24:50.609Z,99088.97
2022-11-23T21:27:34.610Z,99132.00
2022-11-23T21:30:18.593Z,99123.88
2022-11-23T21:33:02.319Z,99127.25
2022-11-23T21:35:46.047Z,99130.56
2022-11-23T21:38:35.159Z,99131.69
2022-11-23T21:41:19.236Z,99121.03
2022-11-23T21:44:02.992Z,99126.34
2022-11-23T21:46:49.735Z,99126.06
2022-11-23T21:49:33.669Z,99121.84
2022-11-23T21:52:17.421Z,99113.41
2022-11-23T21:55:02.765Z,99110.88
2022-11-23T21:57:47.055Z,99103.41
2022-11-23T22:00:31.593Z,99081.63
2022-11-23T22:03:15.514Z,99114.44
2022-11-23T22:05:59.921Z,99107.28
2022-11-23T22:08:45.587Z,99106.44
2022-11-23T22:11:32.547Z,99108.44
2022-11-23T22:14:19.401Z,99091.16
2022-11-23T22:17:04.213Z,99113.09
2022-11-23T22:19:48.602Z,99113.25
2022-11-23T22:22:32.313Z,99109.19
2022-11-23T22:25:16.381Z,99090.78
2022-11-23T22:28:02.024Z,99123.53
2022-11-23T22:30:53.752Z,99118.84
2022-11-23T22:33:38.139Z,99111.97
2022-11-23T22:36:23.592Z,99121.38
2022-11-23T22:39:08.397Z,99107.50
2022-11-23T22:41:52.336Z,99129.31
2022-11-23T22:44:38.443Z,99133.00
2022-11-23T22:47:22.461Z,99133.59
2022-11-23T22:50:07.365Z,99133.13
2022-11-23T22:52:51.113Z,99138.00
2022-11-23T22:55:35.354Z,99123.88
2022-11-23T22:58:19.643Z,99135.25
2022-11-23T23:01:08.286Z,99137.59
2022-11-23T23:03:55.974Z,99098.28
2022-11-23T23:06:39.934Z,99137.00
2022-11-23T23:09:23.684Z,99132.91
2022-11-23T23:12:07.848Z,99095.66
2022-11-23T23:14:51.728Z,99129.69
2022-11-23T23:17:36.920Z,99113.53
2022-11-23T23:20:20.634Z,99137.13
2022-11-23T23:23:04.799Z,99107.13
2022-11-23T23:25:48.665Z,99132.72
2022-11-23T23:28:32.483Z,99136.72
2022-11-23T23:31:18.156Z,99127.50
2022-11-23T23:34:03.443Z,99128.00
2022-11-23T23:36:47.280Z,99120.69
2022-11-23T23:39:31.043Z,99138.16
2022-11-23T23:42:15.009Z,99142.38
2022-11-23T23:44:59.676Z,99141.34
2022-11-23T23:47:43.710Z,99144.47
2022-11-23T23:50:28.861Z,99143.03
2022-11-23T23:53:12.828Z,99145.81
2022-11-23T23:55:57.973Z,99143.53
2022-11-23T23:58:42.670Z,99115.84
